Terminal Aerodrome Forecast
Issued by NWS

Home | Current Version | Previous Version | Graphics & Text | Print | Product List | Glossary On
Versions: 1 2 3 4 5 6 7 8 9 10 11 12
000
FTUS43 KPAH 171700
TAFOWB
TAF
KOWB 171720Z 1718/1818 18008KT P6SM SCT200
      TEMPO 1718/1720 20010G20KT
     FM180000 16008KT P6SM SCT045 BKN200
     FM180700 18004KT P6SM BKN050
      TEMPO 1807/1811 -RA
     FM181100 21004KT P6SM OVC050
     FM181445 VRB02KT P6SM FEW050 SCT140=

USA.gov is the U.S. government's official web portal to all federal, state and local government web resources and services.